createdAt,value
2022-12-26T08:10:15.672Z,4.85
2022-12-26T08:12:42.394Z,4.92
2022-12-26T08:15:11.359Z,5.04
2022-12-26T08:17:38.099Z,5.16
2022-12-26T08:20:05.209Z,5.27
2022-12-26T08:22:31.939Z,5.33
2022-12-26T08:24:58.592Z,5.47
2022-12-26T08:27:25.324Z,5.60
2022-12-26T08:29:53.413Z,5.72
2022-12-26T08:32:20.105Z,5.85
2022-12-26T08:34:46.808Z,5.95
2022-12-26T08:37:13.549Z,6.01
2022-12-26T08:39:42.751Z,6.09
2022-12-26T08:42:09.466Z,6.02
2022-12-26T08:44:36.260Z,6.09
2022-12-26T08:47:02.903Z,6.13
2022-12-26T08:49:29.541Z,6.27
2022-12-26T08:51:56.292Z,6.30
2022-12-26T08:54:23.445Z,6.31
2022-12-26T08:56:50.080Z,6.38
2022-12-26T08:59:16.841Z,6.48
2022-12-26T09:01:43.624Z,6.58
2022-12-26T09:04:10.570Z,6.65
2022-12-26T09:06:38.701Z,6.77
2022-12-26T09:09:07.422Z,6.95
2022-12-26T09:11:34.343Z,7.11
2022-12-26T09:14:02.343Z,7.16
2022-12-26T09:16:58.335Z,7.25
2022-12-26T09:19:29.779Z,7.36
2022-12-26T09:22:23.685Z,7.45
2022-12-26T09:24:50.450Z,7.49
2022-12-26T09:27:17.126Z,7.70
2022-12-26T09:29:43.869Z,7.73
2022-12-26T09:32:10.616Z,7.89
2022-12-26T09:34:37.380Z,7.90
2022-12-26T09:37:04.033Z,7.95
2022-12-26T09:39:31.074Z,7.91
2022-12-26T09:42:15.581Z,8.15
2022-12-26T09:44:47.755Z,8.27
2022-12-26T09:47:19.558Z,8.35
2022-12-26T09:49:56.826Z,8.31
2022-12-26T09:52:36.954Z,8.29
2022-12-26T09:55:14.364Z,8.33
2022-12-26T09:57:46.474Z,8.35
2022-12-26T10:00:33.377Z,8.40
2022-12-26T10:03:00.442Z,8.43
2022-12-26T10:05:32.986Z,8.36
2022-12-26T10:08:18.533Z,8.48
2022-12-26T10:10:57.587Z,8.55
2022-12-26T10:13:33.900Z,8.61
2022-12-26T10:16:09.791Z,8.66
2022-12-26T10:18:58.236Z,8.74
2022-12-26T10:21:37.179Z,8.84
2022-12-26T10:24:15.997Z,8.94
2022-12-26T10:26:49.916Z,8.95
2022-12-26T10:29:25.898Z,9.05
2022-12-26T10:31:58.558Z,9.16
2022-12-26T10:34:27.993Z,9.40
2022-12-26T10:37:00.015Z,9.42
2022-12-26T10:39:36.124Z,9.54
2022-12-26T10:42:30.162Z,9.69
2022-12-26T10:44:58.252Z,9.75
2022-12-26T10:47:27.462Z,9.82
2022-12-26T10:49:54.602Z,9.89
2022-12-26T10:52:30.406Z,9.94
2022-12-26T10:55:28.595Z,9.96
2022-12-26T10:57:48.873Z,10.09
2022-12-26T11:00:20.138Z,10.24
2022-12-26T11:03:02.578Z,10.38
2022-12-26T11:08:28.719Z,10.43
2022-12-26T11:11:03.524Z,10.59
2022-12-26T11:13:34.666Z,10.62
2022-12-26T11:16:01.907Z,10.76
2022-12-26T11:18:48.355Z,10.88
2022-12-26T11:21:17.810Z,10.93
2022-12-26T11:23:49.684Z,10.94
2022-12-26T11:26:24.675Z,10.87
2022-12-26T11:29:11.549Z,10.95
2022-12-26T11:31:39.946Z,10.90
2022-12-26T11:34:17.869Z,11.00
2022-12-26T11:36:47.517Z,10.89
2022-12-26T11:39:42.451Z,10.80
2022-12-26T11:42:11.848Z,10.79
2022-12-26T11:44:45.604Z,10.73
2022-12-26T11:47:14.551Z,10.72
2022-12-26T11:49:45.506Z,10.77
2022-12-26T11:52:30.692Z,10.69
2022-12-26T11:54:57.300Z,10.63
2022-12-26T11:57:33.812Z,10.65
2022-12-26T12:00:16.463Z,10.56
2022-12-26T12:02:43.613Z,10.46
2022-12-26T12:05:16.588Z,10.48
2022-12-26T12:08:04.731Z,10.47
2022-12-26T12:10:47.708Z,10.52
2022-12-26T12:13:27.602Z,10.58
2022-12-26T12:16:12.697Z,10.57
2022-12-26T12:18:47.565Z,10.62
2022-12-26T12:21:58.644Z,10.48
2022-12-26T12:25:20.189Z,10.43
2022-12-26T12:28:00.813Z,10.44
2022-12-26T12:30:35.891Z,10.34
2022-12-26T12:33:34.129Z,10.28
2022-12-26T12:36:13.591Z,10.20
2022-12-26T12:38:46.482Z,10.24
2022-12-26T12:41:52.529Z,10.09
2022-12-26T12:44:50.310Z,10.03
2022-12-26T12:47:31.825Z,9.92
2022-12-26T12:50:01.355Z,10.00
2022-12-26T12:52:52.139Z,10.07
2022-12-26T12:55:36.289Z,10.06
2022-12-26T12:58:16.005Z,10.06
2022-12-26T13:01:03.127Z,10.00
2022-12-26T13:03:45.717Z,9.99
2022-12-26T13:06:16.755Z,9.97
2022-12-26T13:08:47.130Z,9.91
2022-12-26T13:11:21.020Z,9.86
2022-12-26T13:13:53.923Z,9.79
2022-12-26T13:16:27.099Z,9.84
2022-12-26T13:19:06.455Z,9.85
2022-12-26T13:21:36.574Z,9.87
2022-12-26T13:24:24.267Z,9.97
2022-12-26T13:27:00.470Z,9.94
2022-12-26T13:29:41.043Z,9.89
2022-12-26T13:32:31.331Z,9.86
2022-12-26T13:35:00.285Z,9.94
2022-12-26T13:37:35.423Z,9.95
2022-12-26T13:40:06.731Z,10.00
2022-12-26T13:42:54.991Z,9.99
2022-12-26T13:45:43.320Z,10.06
2022-12-26T13:48:18.758Z,10.01
2022-12-26T13:50:55.611Z,9.89
2022-12-26T13:53:25.706Z,9.87
2022-12-26T13:56:36.831Z,9.85
2022-12-26T14:07:06.808Z,9.37
2022-12-26T14:10:10.446Z,9.35
2022-12-26T14:13:19.627Z,9.06
2022-12-26T14:25:18.693Z,8.39
2022-12-26T14:28:38.032Z,8.25
2022-12-26T14:31:16.481Z,8.01
2022-12-26T14:34:11.375Z,7.75
2022-12-26T14:36:57.428Z,7.61
2022-12-26T14:39:39.455Z,7.48
2022-12-26T14:42:24.730Z,7.33
2022-12-26T14:44:57.566Z,7.20
2022-12-26T14:47:44.385Z,7.08
2022-12-26T14:50:32.751Z,7.01
2022-12-26T14:53:24.423Z,6.94
2022-12-26T14:55:53.683Z,6.87
2022-12-26T14:58:26.666Z,6.73
2022-12-26T15:00:54.371Z,6.64
2022-12-26T15:03:59.122Z,6.60
2022-12-26T15:06:53.688Z,6.57
2022-12-26T15:09:55.630Z,6.41
2022-12-26T15:12:37.953Z,6.37
2022-12-26T15:15:10.677Z,6.32
2022-12-26T15:17:55.734Z,6.26
2022-12-26T15:20:37.671Z,6.28
2022-12-26T15:23:07.382Z,6.23
2022-12-26T15:25:52.711Z,6.21
2022-12-26T15:28:32.375Z,6.16
2022-12-26T15:31:02.162Z,6.15
2022-12-26T15:33:46.943Z,6.11
2022-12-26T15:36:25.616Z,6.05
2022-12-26T15:39:10.469Z,5.95
2022-12-26T15:41:47.059Z,5.90
2022-12-26T15:44:42.839Z,5.94
2022-12-26T15:47:12.460Z,5.88
2022-12-26T15:49:53.978Z,5.84
2022-12-26T15:52:46.172Z,5.78
2022-12-26T15:55:40.951Z,5.69
2022-12-26T15:58:52.415Z,5.65
2022-12-26T16:01:38.927Z,5.61
2022-12-26T16:04:23.771Z,5.51
2022-12-26T16:07:26.060Z,5.45
2022-12-26T16:09:56.344Z,5.35
2022-12-26T16:12:32.030Z,5.35
2022-12-26T16:15:10.761Z,5.33
2022-12-26T16:17:38.535Z,5.41
2022-12-26T16:20:48.499Z,5.25
2022-12-26T16:23:17.812Z,5.23
2022-12-26T16:25:52.394Z,5.11
2022-12-26T16:28:24.203Z,5.10
2022-12-26T16:30:51.073Z,5.11
2022-12-26T16:33:18.284Z,5.04
2022-12-26T16:35:45.135Z,4.91
2022-12-26T16:38:15.268Z,4.95
2022-12-26T16:40:50.305Z,4.96
2022-12-26T16:43:26.432Z,4.70
2022-12-26T16:45:58.780Z,4.60
2022-12-26T16:48:27.340Z,4.49
2022-12-26T16:51:03.551Z,4.36
2022-12-26T16:53:36.616Z,4.35
2022-12-26T16:56:29.078Z,4.39
2022-12-26T16:59:05.399Z,4.35
2022-12-26T17:01:32.760Z,4.39
2022-12-26T17:04:05.803Z,4.40
2022-12-26T17:06:35.082Z,4.44
2022-12-26T17:09:21.145Z,4.56
2022-12-26T17:11:56.183Z,4.57
2022-12-26T17:14:30.864Z,4.63
2022-12-26T17:17:04.255Z,4.60
2022-12-26T17:19:33.304Z,4.58
2022-12-26T17:22:15.148Z,4.65
2022-12-26T17:24:42.837Z,4.60
2022-12-26T17:27:26.694Z,4.67
2022-12-26T17:30:09.407Z,4.70
2022-12-26T17:32:49.096Z,4.78
2022-12-26T17:38:42.062Z,4.67
2022-12-26T17:41:20.116Z,4.67
2022-12-26T17:43:55.747Z,4.58
2022-12-26T17:46:39.989Z,4.63
2022-12-26T17:49:10.265Z,4.55
2022-12-26T17:51:58.304Z,4.70
2022-12-26T17:54:40.402Z,4.62
2022-12-26T17:57:30.702Z,4.62
2022-12-26T18:03:22.465Z,4.50
2022-12-26T18:05:57.271Z,4.56
2022-12-26T18:08:39.733Z,4.54
2022-12-26T18:11:17.878Z,4.56
2022-12-26T18:14:20.135Z,4.64
2022-12-26T18:16:54.171Z,4.69
2022-12-26T18:19:26.296Z,4.78
2022-12-26T18:21:58.160Z,4.90
2022-12-26T18:24:32.222Z,4.95
2022-12-26T18:27:00.087Z,5.03
2022-12-26T18:29:36.969Z,5.14
2022-12-26T18:32:30.027Z,5.37
2022-12-26T18:35:02.095Z,5.91
2022-12-26T18:37:45.430Z,6.31
2022-12-26T18:40:35.978Z,6.88
2022-12-26T18:43:05.303Z,7.48
2022-12-26T18:45:46.023Z,7.78
2022-12-26T18:48:25.719Z,8.17
2022-12-26T18:53:49.153Z,9.28
2022-12-26T19:00:05.656Z,10.11
2022-12-26T19:02:44.263Z,10.09
2022-12-26T19:05:31.347Z,10.58
2022-12-26T19:08:07.223Z,10.88
2022-12-26T19:11:05.278Z,10.86
2022-12-26T19:13:39.916Z,10.85
2022-12-26T19:16:09.558Z,10.77
2022-12-26T19:18:41.666Z,11.05
2022-12-26T19:21:17.394Z,10.99
2022-12-26T19:27:01.340Z,11.26
2022-12-26T19:34:14.570Z,11.25
2022-12-26T19:39:58.202Z,11.29
2022-12-26T19:42:37.397Z,11.36
2022-12-26T19:52:17.144Z,11.52
2022-12-26T19:55:10.265Z,11.60
2022-12-26T19:57:56.101Z,11.68
2022-12-26T20:04:15.452Z,11.63
2022-12-26T20:09:55.267Z,11.61
2022-12-26T20:20:50.210Z,11.59
2022-12-26T20:36:48.234Z,11.73
2022-12-26T20:39:17.070Z,11.62
2022-12-26T20:41:44.085Z,11.48
2022-12-26T20:44:13.655Z,11.35
2022-12-26T20:46:41.327Z,11.33
2022-12-26T20:49:09.009Z,11.33
2022-12-26T20:51:37.723Z,11.19
2022-12-26T20:54:07.007Z,11.18
2022-12-26T20:56:34.607Z,11.41
2022-12-26T20:59:01.292Z,11.53
2022-12-26T21:01:28.523Z,11.62
2022-12-26T21:03:56.604Z,11.82
2022-12-26T21:06:35.034Z,11.88
2022-12-26T21:09:02.491Z,11.75
2022-12-26T21:11:38.250Z,11.62
2022-12-26T21:14:16.597Z,11.74
2022-12-26T21:16:56.385Z,11.73
2022-12-26T21:19:24.923Z,11.80
2022-12-26T21:21:53.855Z,11.64
2022-12-26T21:24:26.655Z,11.65
2022-12-26T21:26:54.141Z,11.53
2022-12-26T21:29:32.433Z,11.51
2022-12-26T21:31:59.780Z,11.58
2022-12-26T21:34:28.629Z,11.60
2022-12-26T21:37:14.268Z,11.74
2022-12-26T21:39:41.188Z,11.64
2022-12-26T21:42:09.237Z,11.58
2022-12-26T21:44:36.760Z,11.48
2022-12-26T21:47:04.937Z,11.58
2022-12-26T21:49:31.578Z,11.45
2022-12-26T21:51:58.203Z,11.39
2022-12-26T21:54:48.536Z,11.37
2022-12-26T21:57:15.797Z,11.34
2022-12-26T21:59:57.998Z,11.46
2022-12-26T22:03:10.558Z,11.49
2022-12-26T22:05:40.599Z,11.42
2022-12-26T22:08:30.192Z,11.41
2022-12-26T22:14:44.254Z,11.41
2022-12-26T22:17:14.180Z,11.40
2022-12-26T22:19:41.688Z,11.57
2022-12-26T22:22:08.448Z,11.54
2022-12-26T22:24:35.143Z,11.47
2022-12-26T22:27:01.746Z,11.43
2022-12-26T22:29:28.406Z,11.34
2022-12-26T22:31:58.375Z,11.31
2022-12-26T22:34:25.160Z,11.32
2022-12-26T22:36:54.383Z,11.38
2022-12-26T22:39:21.011Z,11.32
2022-12-26T22:41:47.728Z,11.35
2022-12-26T22:44:14.800Z,11.47
2022-12-26T22:46:42.282Z,11.42
2022-12-26T22:49:09.082Z,11.54
2022-12-26T22:51:35.707Z,11.66
2022-12-26T22:54:02.609Z,11.43
2022-12-26T22:56:29.770Z,11.61
2022-12-26T22:59:00.635Z,11.57
2022-12-26T23:01:27.467Z,11.48
2022-12-26T23:03:54.231Z,11.45
2022-12-26T23:06:21.045Z,11.69
2022-12-26T23:08:48.926Z,11.70
2022-12-26T23:11:16.146Z,11.83
2022-12-26T23:13:42.941Z,11.76
2022-12-26T23:16:17.047Z,11.65
2022-12-26T23:19:07.484Z,11.58
2022-12-26T23:21:43.807Z,11.67
2022-12-26T23:24:14.453Z,11.68
2022-12-26T23:26:44.908Z,11.56
2022-12-26T23:29:31.610Z,11.49
2022-12-26T23:31:58.835Z,11.47
2022-12-26T23:34:25.441Z,11.53
2022-12-26T23:36:52.217Z,11.34
2022-12-26T23:39:19.148Z,11.47
2022-12-26T23:41:46.132Z,11.56
2022-12-26T23:44:13.010Z,11.38
2022-12-26T23:46:41.027Z,11.33
2022-12-26T23:49:08.279Z,11.56
2022-12-26T23:51:34.904Z,11.54
2022-12-26T23:54:01.615Z,11.58
2022-12-26T23:56:28.258Z,11.60
2022-12-26T23:58:55.638Z,11.54
